Time;durP1;ratioP1;P1;durP2;ratioP2;P2;SDS_P1;SDS_P2;PMS_P1;PMS_P2;Temp;Humidity;BMP_temperature;BMP_pressure;BME280_temperature;BME280_humidity;BME280_pressure;Samples;Min_cycle;Max_cycle;Signal;HPM_P1;HPM_P2
2020/12/28 00:00:29;;;;;;;1.20;1.10;;;4.00;99.90;;;;;;482764;245;27463;-70
2020/12/28 00:02:30;;;;;;;1.30;1.20;;;4.00;99.90;;;;;;482722;245;27603;-74
2020/12/28 00:04:32;;;;;;;0.90;0.90;;;4.00;99.90;;;;;;482777;245;27548;-73
2020/12/28 00:06:33;;;;;;;1.05;1.05;;;4.00;99.90;;;;;;482787;245;27922;-73
2020/12/28 00:08:34;;;;;;;1.23;0.98;;;4.00;99.90;;;;;;482699;245;28087;-74
2020/12/28 00:10:35;;;;;;;1.00;1.00;;;4.10;99.90;;;;;;482580;245;27899;-73
2020/12/28 00:12:49;;;;;;;1.02;1.02;;;4.10;99.90;;;;;;482614;245;27570;-73
2020/12/28 00:14:50;;;;;;;4.30;1.08;;;4.10;99.90;;;;;;482738;245;28119;-73
2020/12/28 00:16:51;;;;;;;1.27;1.27;;;4.10;99.90;;;;;;482691;245;28024;-73
2020/12/28 00:18:52;;;;;;;1.00;1.00;;;4.10;99.90;;;;;;482714;245;28002;-72
2020/12/28 00:20:54;;;;;;;0.98;0.98;;;4.10;99.90;;;;;;482641;245;27456;-72
2020/12/28 00:22:55;;;;;;;0.90;0.90;;;3.90;99.90;;;;;;482718;245;27438;-70
2020/12/28 00:24:56;;;;;;;1.10;1.10;;;4.00;99.90;;;;;;482754;245;27573;-73
2020/12/28 00:26:57;;;;;;;1.20;1.10;;;4.00;99.90;;;;;;482706;245;27527;-72
2020/12/28 00:28:59;;;;;;;0.93;0.93;;;4.10;99.90;;;;;;482756;245;27464;-74
2020/12/28 00:31:00;;;;;;;1.00;1.00;;;4.10;99.90;;;;;;482709;245;27483;-73
2020/12/28 00:33:01;;;;;;;1.10;1.10;;;4.00;99.90;;;;;;482851;245;27530;-73
2020/12/28 00:35:02;;;;;;;1.17;1.15;;;4.00;99.90;;;;;;482857;245;27516;-71
2020/12/28 00:37:04;;;;;;;1.00;1.00;;;4.10;99.90;;;;;;482794;245;27519;-72
2020/12/28 00:39:05;;;;;;;1.00;1.00;;;4.10;99.90;;;;;;482783;245;27959;-70
2020/12/28 00:41:06;;;;;;;1.87;1.00;;;4.10;99.90;;;;;;482732;245;28609;-71
2020/12/28 00:43:07;;;;;;;1.08;1.08;;;4.10;99.90;;;;;;482798;245;28032;-74
2020/12/28 00:45:12;;;;;;;2.15;1.40;;;4.00;99.90;;;;;;482805;245;27428;-73
2020/12/28 00:47:13;;;;;;;1.08;1.08;;;4.10;99.90;;;;;;482778;245;27483;-73
2020/12/28 00:49:14;;;;;;;1.00;1.00;;;4.10;99.90;;;;;;482768;245;27451;-73
2020/12/28 00:51:16;;;;;;;1.20;1.10;;;4.10;99.90;;;;;;482582;245;27499;-72
2020/12/28 00:53:17;;;;;;;1.00;1.00;;;4.00;99.90;;;;;;482799;245;28022;-73
2020/12/28 00:55:18;;;;;;;1.27;1.27;;;4.10;99.90;;;;;;482789;245;28735;-72
2020/12/28 00:57:19;;;;;;;1.20;1.10;;;4.10;99.90;;;;;;482798;245;28002;-73
2020/12/28 00:59:21;;;;;;;1.15;1.08;;;4.10;99.90;;;;;;482818;245;27435;-75
2020/12/28 01:01:22;;;;;;;1.10;1.10;;;4.10;99.90;;;;;;482758;245;27411;-73
2020/12/28 01:03:23;;;;;;;1.33;1.23;;;4.10;99.90;;;;;;482802;246;27534;-74
2020/12/28 01:05:24;;;;;;;1.25;1.20;;;4.00;99.90;;;;;;482865;245;27547;-72
2020/12/28 01:07:26;;;;;;;1.20;1.10;;;4.00;99.90;;;;;;482877;245;27459;-72
2020/12/28 01:09:27;;;;;;;1.40;1.30;;;4.10;99.90;;;;;;482984;245;27555;-75
2020/12/28 01:11:28;;;;;;;1.00;1.00;;;4.10;99.90;;;;;;482907;245;27495;-73
2020/12/28 01:13:29;;;;;;;1.20;1.20;;;4.10;99.90;;;;;;482986;245;27477;-73
2020/12/28 01:15:31;;;;;;;1.27;1.25;;;4.10;99.90;;;;;;483011;245;28703;-70
2020/12/28 01:17:32;;;;;;;1.48;1.37;;;4.10;99.90;;;;;;482997;245;27912;-69
2020/12/28 01:19:33;;;;;;;1.20;1.20;;;4.10;99.90;;;;;;482984;245;27950;-72
2020/12/28 01:21:34;;;;;;;1.20;1.20;;;4.20;99.90;;;;;;482912;245;27446;-70
2020/12/28 01:23:36;;;;;;;1.15;1.15;;;4.20;99.90;;;;;;482937;245;27452;-71
2020/12/28 01:25:37;;;;;;;1.30;1.20;;;4.20;99.90;;;;;;482881;245;27442;-71
2020/12/28 01:27:38;;;;;;;1.20;1.10;;;4.20;99.90;;;;;;482832;245;27438;-70
2020/12/28 01:29:39;;;;;;;1.10;1.10;;;4.20;99.90;;;;;;482806;245;27459;-72
2020/12/28 01:31:41;;;;;;;1.50;1.10;;;4.10;99.90;;;;;;482799;245;27503;-70
2020/12/28 01:33:42;;;;;;;1.15;1.15;;;4.20;99.90;;;;;;482787;245;27548;-71
2020/12/28 01:35:43;;;;;;;1.35;1.25;;;4.10;99.90;;;;;;482790;245;27447;-71
2020/12/28 01:37:44;;;;;;;1.05;1.05;;;4.10;99.90;;;;;;482827;245;28085;-70
2020/12/28 01:39:46;;;;;;;1.02;1.02;;;4.10;99.90;;;;;;482899;245;28132;-71
2020/12/28 01:41:47;;;;;;;1.20;1.20;;;4.10;99.90;;;;;;482850;245;28091;-71
2020/12/28 01:43:48;;;;;;;1.65;1.10;;;4.10;99.90;;;;;;482845;245;27528;-72
2020/12/28 01:45:49;;;;;;;1.00;1.00;;;4.10;99.90;;;;;;482826;245;27553;-71
2020/12/28 01:47:51;;;;;;;1.00;1.00;;;4.10;99.90;;;;;;482813;245;27523;-71
2020/12/28 01:49:52;;;;;;;1.10;1.10;;;4.00;99.90;;;;;;482845;245;27887;-70
2020/12/28 01:51:53;;;;;;;1.25;1.15;;;4.00;99.90;;;;;;482786;245;28248;-72
2020/12/28 01:53:54;;;;;;;1.10;1.10;;;4.10;99.90;;;;;;482829;245;27638;-71
2020/12/28 01:55:56;;;;;;;1.37;1.27;;;4.10;99.90;;;;;;482835;245;27537;-71
2020/12/28 01:57:57;;;;;;;1.00;1.00;;;4.10;99.90;;;;;;482839;245;27645;-71
2020/12/28 01:59:58;;;;;;;1.30;1.20;;;4.20;99.90;;;;;;482864;245;27986;-70
2020/12/28 02:01:59;;;;;;;1.10;1.10;;;4.20;99.90;;;;;;482844;245;28126;-72
2020/12/28 02:04:01;;;;;;;1.00;1.00;;;4.10;99.90;;;;;;482859;245;28033;-74
2020/12/28 02:06:02;;;;;;;1.30;1.20;;;4.20;99.90;;;;;;482869;245;27547;-72
2020/12/28 02:08:03;;;;;;;1.52;1.00;;;4.20;99.90;;;;;;482863;245;27538;-71
2020/12/28 02:10:04;;;;;;;1.12;1.10;;;4.20;99.90;;;;;;482835;245;27534;-70
2020/12/28 02:12:06;;;;;;;1.08;1.05;;;4.20;99.90;;;;;;482860;245;27530;-71
2020/12/28 02:14:07;;;;;;;1.40;1.30;;;4.30;99.90;;;;;;482822;245;27537;-72
2020/12/28 02:16:08;;;;;;;1.10;1.10;;;4.30;99.90;;;;;;482789;245;27635;-71
2020/12/28 02:18:09;;;;;;;1.50;1.40;;;4.20;99.90;;;;;;482860;245;27537;-74
2020/12/28 02:20:11;;;;;;;1.92;1.23;;;4.20;99.90;;;;;;482792;245;28001;-71
2020/12/28 02:22:12;;;;;;;2.75;1.30;;;4.20;99.90;;;;;;482844;245;28022;-71
2020/12/28 02:24:16;;;;;;;1.33;1.20;;;4.20;99.90;;;;;;482838;245;28006;-72
2020/12/28 02:26:14;;;;;;;1.20;1.20;;;4.20;99.90;;;;;;482666;246;27552;-72
2020/12/28 02:28:16;;;;;;;1.10;1.10;;;4.30;99.90;;;;;;482898;245;27546;-72
2020/12/28 02:30:17;;;;;;;1.50;1.40;;;4.30;99.90;;;;;;482771;245;27499;-71
2020/12/28 02:32:18;;;;;;;1.08;1.08;;;4.20;99.90;;;;;;482901;245;27544;-70
2020/12/28 02:34:20;;;;;;;1.20;1.20;;;4.20;99.90;;;;;;482875;245;27996;-72
2020/12/28 02:36:21;;;;;;;1.00;1.00;;;4.30;99.90;;;;;;482913;245;27486;-71
2020/12/28 02:38:22;;;;;;;1.60;1.30;;;4.20;99.90;;;;;;482924;245;27534;-71
2020/12/28 02:40:23;;;;;;;1.30;1.30;;;4.30;99.90;;;;;;482904;245;28033;-70
2020/12/28 02:42:25;;;;;;;1.85;1.20;;;4.30;99.90;;;;;;482363;245;27893;-71
2020/12/28 02:44:26;;;;;;;1.08;1.00;;;4.30;99.90;;;;;;482753;245;27840;-74
2020/12/28 02:46:27;;;;;;;1.20;1.20;;;4.30;99.90;;;;;;482512;245;27537;-71
2020/12/28 02:48:28;;;;;;;1.67;1.17;;;4.20;99.90;;;;;;482826;245;27972;-71
2020/12/28 02:50:30;;;;;;;1.40;1.30;;;4.20;99.90;;;;;;482812;242;27857;-71
2020/12/28 02:52:31;;;;;;;0.95;0.95;;;4.20;99.90;;;;;;482736;245;27973;-72
2020/12/28 02:54:32;;;;;;;1.10;1.10;;;4.20;99.90;;;;;;482730;245;27524;-72
2020/12/28 02:56:33;;;;;;;1.20;1.20;;;4.20;99.90;;;;;;482701;245;27404;-71
2020/12/28 02:58:35;;;;;;;1.10;1.10;;;4.20;99.90;;;;;;482757;245;27445;-71
2020/12/28 03:00:36;;;;;;;1.10;1.05;;;4.20;99.90;;;;;;482691;245;27490;-70
2020/12/28 03:02:37;;;;;;;1.12;1.02;;;4.20;99.90;;;;;;482689;245;27449;-73
2020/12/28 03:04:38;;;;;;;1.10;1.10;;;4.30;99.90;;;;;;482720;245;27433;-73
2020/12/28 03:06:40;;;;;;;1.30;1.20;;;4.20;99.90;;;;;;482737;245;27516;-72
2020/12/28 03:08:41;;;;;;;1.30;1.20;;;4.30;99.90;;;;;;482719;245;27448;-74
2020/12/28 03:10:42;;;;;;;1.30;1.20;;;4.30;99.90;;;;;;482695;245;27952;-72
2020/12/28 03:12:43;;;;;;;1.48;1.37;;;4.20;99.90;;;;;;482712;245;27911;-71
2020/12/28 03:14:45;;;;;;;1.20;1.10;;;4.20;99.90;;;;;;482657;245;28020;-70
2020/12/28 03:16:46;;;;;;;1.17;1.08;;;4.30;99.90;;;;;;482667;245;27505;-69
2020/12/28 03:18:47;;;;;;;1.10;1.10;;;4.30;99.90;;;;;;482742;245;27537;-72
2020/12/28 03:20:48;;;;;;;1.77;1.15;;;4.30;99.90;;;;;;482689;245;27524;-71
2020/12/28 03:22:50;;;;;;;1.30;1.30;;;4.30;99.90;;;;;;482704;245;27503;-71
2020/12/28 03:24:51;;;;;;;1.00;1.00;;;4.30;99.90;;;;;;482685;245;27449;-71
2020/12/28 03:26:52;;;;;;;1.12;1.12;;;4.30;99.90;;;;;;482685;245;27457;-71
2020/12/28 03:28:53;;;;;;;1.25;1.15;;;4.30;99.90;;;;;;482704;245;27999;-71
2020/12/28 03:30:55;;;;;;;2.42;1.40;;;4.30;99.90;;;;;;482664;245;27874;-71
2020/12/28 03:32:56;;;;;;;1.08;1.08;;;4.20;99.90;;;;;;482689;245;29105;-71
2020/12/28 03:34:57;;;;;;;1.23;1.10;;;4.30;99.90;;;;;;482664;245;27429;-71
2020/12/28 03:36:58;;;;;;;1.40;1.30;;;4.30;99.90;;;;;;482693;242;27438;-70
2020/12/28 03:39:00;;;;;;;1.23;1.23;;;4.20;99.90;;;;;;482696;245;27438;-72
2020/12/28 03:41:01;;;;;;;1.20;1.10;;;4.20;99.90;;;;;;482647;245;27477;-70
2020/12/28 03:43:02;;;;;;;1.10;1.10;;;4.20;99.90;;;;;;482654;245;27513;-69
2020/12/28 03:45:03;;;;;;;1.35;1.27;;;4.20;99.90;;;;;;482695;245;27437;-71
2020/12/28 03:47:05;;;;;;;1.17;1.08;;;4.20;99.90;;;;;;482722;245;27516;-72
2020/12/28 03:49:06;;;;;;;1.30;1.20;;;4.30;99.90;;;;;;482703;245;27441;-73
2020/12/28 03:51:07;;;;;;;1.65;1.35;;;4.30;99.90;;;;;;482645;245;27958;-71
2020/12/28 03:53:08;;;;;;;1.85;1.75;;;4.30;99.90;;;;;;482676;245;28006;-71
2020/12/28 03:55:10;;;;;;;1.48;1.33;;;4.20;99.90;;;;;;482756;245;27392;-70
2020/12/28 03:57:11;;;;;;;1.17;1.15;;;4.20;99.90;;;;;;482736;245;27437;-71
2020/12/28 03:59:12;;;;;;;1.30;1.30;;;4.20;99.90;;;;;;482775;245;27397;-71
2020/12/28 04:01:13;;;;;;;1.55;1.40;;;4.20;99.90;;;;;;482758;245;27429;-71
2020/12/28 04:03:15;;;;;;;1.30;1.20;;;4.20;99.90;;;;;;482842;245;27481;-72
2020/12/28 04:05:16;;;;;;;1.45;1.35;;;4.20;99.90;;;;;;482852;245;27501;-70
2020/12/28 04:07:17;;;;;;;1.45;1.30;;;4.20;99.90;;;;;;482877;245;27453;-71
2020/12/28 04:09:18;;;;;;;2.08;1.33;;;4.20;99.90;;;;;;482893;245;27992;-70
2020/12/28 04:11:20;;;;;;;1.40;1.33;;;4.20;99.90;;;;;;482854;245;27892;-70
2020/12/28 04:13:21;;;;;;;1.10;1.10;;;4.20;99.90;;;;;;482905;245;27938;-73
2020/12/28 04:15:22;;;;;;;1.83;1.67;;;4.30;99.90;;;;;;482900;245;27449;-70
2020/12/28 04:17:23;;;;;;;1.00;1.00;;;4.30;99.90;;;;;;482861;245;27520;-71
2020/12/28 04:19:25;;;;;;;2.45;1.10;;;4.30;99.90;;;;;;482833;245;27489;-69
2020/12/28 04:21:26;;;;;;;2.85;1.40;;;4.20;99.90;;;;;;482752;245;27515;-70
2020/12/28 04:23:27;;;;;;;1.30;1.20;;;4.20;99.90;;;;;;482467;246;27746;-74
2020/12/28 04:25:28;;;;;;;2.50;1.35;;;4.20;99.90;;;;;;482736;245;27385;-70
2020/12/28 04:27:30;;;;;;;6.10;1.60;;;4.20;99.90;;;;;;482726;245;27533;-71
2020/12/28 04:29:31;;;;;;;1.60;1.50;;;4.20;99.90;;;;;;482709;245;27961;-72
2020/12/28 04:31:32;;;;;;;1.10;1.10;;;4.20;99.90;;;;;;482646;245;27876;-70
2020/12/28 04:33:33;;;;;;;1.10;1.10;;;4.20;99.90;;;;;;482734;245;27515;-72
2020/12/28 04:35:35;;;;;;;1.27;1.17;;;4.20;99.90;;;;;;482734;245;27509;-70
2020/12/28 04:37:36;;;;;;;1.30;1.30;;;4.20;99.90;;;;;;482694;245;27459;-72
2020/12/28 04:39:37;;;;;;;2.25;1.48;;;4.20;99.90;;;;;;482696;245;27441;-73
2020/12/28 04:41:38;;;;;;;3.25;1.58;;;4.30;99.90;;;;;;482643;245;27521;-70
2020/12/28 04:43:40;;;;;;;1.75;1.10;;;4.20;99.90;;;;;;482712;245;27463;-72
2020/12/28 04:45:41;;;;;;;1.73;1.62;;;4.20;99.90;;;;;;482732;245;27485;-71
2020/12/28 04:47:42;;;;;;;1.17;1.17;;;4.30;99.90;;;;;;482746;245;27452;-72
2020/12/28 04:49:44;;;;;;;1.48;1.37;;;4.30;99.90;;;;;;482730;245;27894;-71
2020/12/28 04:51:45;;;;;;;3.75;1.48;;;4.20;99.90;;;;;;482647;245;27932;-70
2020/12/28 04:53:46;;;;;;;1.73;1.25;;;4.20;99.90;;;;;;482722;245;27896;-71
2020/12/28 04:55:47;;;;;;;1.40;1.30;;;4.20;99.90;;;;;;482701;242;27524;-71
2020/12/28 04:57:49;;;;;;;1.40;1.15;;;4.20;99.90;;;;;;482736;245;27481;-71
2020/12/28 04:59:50;;;;;;;2.25;1.27;;;4.20;99.90;;;;;;482725;245;27491;-70
2020/12/28 05:01:51;;;;;;;1.20;1.20;;;4.30;99.90;;;;;;482707;245;27521;-71
2020/12/28 05:03:52;;;;;;;1.42;1.33;;;4.30;99.90;;;;;;482736;245;27465;-69
2020/12/28 05:05:54;;;;;;;2.45;1.30;;;4.30;99.90;;;;;;482761;245;27769;-71
2020/12/28 05:07:55;;;;;;;1.30;1.20;;;4.30;99.90;;;;;;482766;245;27456;-71
2020/12/28 05:09:56;;;;;;;1.10;1.10;;;4.30;99.90;;;;;;482762;245;27869;-70
2020/12/28 05:11:57;;;;;;;2.05;1.30;;;4.30;99.90;;;;;;482695;245;27993;-70
2020/12/28 05:13:59;;;;;;;1.92;1.30;;;4.30;99.90;;;;;;482716;245;27948;-74
2020/12/28 05:16:00;;;;;;;1.30;1.20;;;4.40;99.90;;;;;;482677;245;27429;-74
2020/12/28 05:18:01;;;;;;;1.42;1.30;;;4.30;99.90;;;;;;482681;245;27513;-75
2020/12/28 05:20:02;;;;;;;1.15;1.15;;;4.20;99.90;;;;;;482626;245;27429;-73
2020/12/28 05:22:04;;;;;;;1.10;1.10;;;4.20;99.90;;;;;;482648;245;27449;-74
2020/12/28 05:24:05;;;;;;;2.05;1.52;;;4.20;99.90;;;;;;482717;246;27524;-73
2020/12/28 05:26:06;;;;;;;1.23;1.23;;;4.20;99.90;;;;;;482677;245;27429;-73
2020/12/28 05:28:07;;;;;;;1.10;1.10;;;4.10;99.90;;;;;;482684;245;27524;-76
2020/12/28 05:30:09;;;;;;;1.23;1.17;;;4.10;99.90;;;;;;482660;245;27901;-70
2020/12/28 05:32:10;;;;;;;1.40;1.30;;;4.10;99.90;;;;;;482715;245;27932;-72
2020/12/28 05:34:11;;;;;;;1.85;1.58;;;4.10;99.90;;;;;;482711;245;27928;-70
2020/12/28 05:36:12;;;;;;;1.85;1.15;;;4.10;99.90;;;;;;482698;245;27425;-71
2020/12/28 05:38:14;;;;;;;1.10;1.10;;;4.10;99.90;;;;;;482705;241;27425;-71
2020/12/28 05:40:15;;;;;;;1.30;1.20;;;4.10;99.90;;;;;;482660;245;27525;-70
2020/12/28 05:42:16;;;;;;;3.83;1.37;;;4.10;99.90;;;;;;482703;245;27532;-75
2020/12/28 05:44:17;;;;;;;2.00;1.60;;;4.10;99.90;;;;;;482764;245;27600;-70
2020/12/28 05:46:19;;;;;;;1.27;1.20;;;4.10;99.90;;;;;;482792;245;27524;-71
2020/12/28 05:48:20;;;;;;;2.35;1.75;;;4.10;99.90;;;;;;482878;245;27432;-71
2020/12/28 05:50:21;;;;;;;1.60;1.17;;;4.00;99.90;;;;;;482803;245;28122;-71
2020/12/28 05:52:22;;;;;;;1.30;1.20;;;4.00;99.90;;;;;;482859;245;27975;-72
2020/12/28 05:54:24;;;;;;;1.15;1.15;;;4.00;99.90;;;;;;482474;246;27993;-71
2020/12/28 05:56:25;;;;;;;1.40;1.30;;;4.00;99.90;;;;;;482766;245;27416;-70
2020/12/28 05:58:26;;;;;;;2.47;1.25;;;3.90;99.90;;;;;;482720;245;27557;-72
2020/12/28 06:00:27;;;;;;;1.30;1.20;;;4.00;99.90;;;;;;482666;245;27433;-71
2020/12/28 06:02:29;;;;;;;2.92;1.50;;;4.00;99.90;;;;;;482749;245;27428;-73
2020/12/28 06:04:30;;;;;;;2.33;1.40;;;4.00;99.90;;;;;;482712;246;27433;-71
2020/12/28 06:06:31;;;;;;;1.50;1.40;;;4.00;99.90;;;;;;482710;245;27519;-71
2020/12/28 06:08:32;;;;;;;5.55;1.30;;;4.00;99.90;;;;;;482715;245;27426;-72
2020/12/28 06:10:34;;;;;;;1.30;1.20;;;4.10;99.90;;;;;;482677;245;27430;-71
2020/12/28 06:12:35;;;;;;;2.70;1.37;;;4.10;99.90;;;;;;482727;245;27522;-72
2020/12/28 06:14:36;;;;;;;2.28;1.52;;;4.10;99.90;;;;;;482751;245;28682;-71
2020/12/28 06:16:37;;;;;;;1.60;1.50;;;4.10;99.90;;;;;;482704;245;27904;-72
2020/12/28 06:18:39;;;;;;;1.98;1.30;;;4.10;99.90;;;;;;482687;245;27911;-71
2020/12/28 06:20:40;;;;;;;1.30;1.30;;;4.10;99.90;;;;;;482641;245;27497;-72
2020/12/28 06:22:41;;;;;;;2.65;1.58;;;4.00;99.90;;;;;;482700;245;27561;-72
2020/12/28 06:24:42;;;;;;;1.37;1.20;;;4.10;99.90;;;;;;482680;245;27624;-74
2020/12/28 06:26:44;;;;;;;5.45;1.65;;;4.10;99.90;;;;;;482686;245;27448;-72
2020/12/28 06:28:45;;;;;;;1.60;1.50;;;4.20;99.90;;;;;;482685;245;27449;-73
2020/12/28 06:30:46;;;;;;;2.85;1.60;;;4.20;99.90;;;;;;482678;245;27430;-71
2020/12/28 06:32:47;;;;;;;4.55;1.40;;;4.20;99.90;;;;;;482718;245;27865;-73
2020/12/28 06:34:49;;;;;;;2.20;1.55;;;4.20;99.90;;;;;;482727;245;27425;-72
2020/12/28 06:36:50;;;;;;;1.60;1.50;;;4.20;99.90;;;;;;482745;245;27440;-71
2020/12/28 06:38:51;;;;;;;1.80;1.70;;;4.20;99.90;;;;;;482724;245;27945;-71
2020/12/28 06:40:52;;;;;;;2.17;1.98;;;4.20;99.90;;;;;;482703;245;27921;-70
2020/12/28 06:42:54;;;;;;;4.45;1.90;;;4.10;99.90;;;;;;482769;245;27512;-73
2020/12/28 06:44:55;;;;;;;2.28;1.70;;;4.10;99.90;;;;;;482736;245;27429;-72
2020/12/28 06:46:56;;;;;;;2.58;1.80;;;4.10;99.90;;;;;;482740;245;27452;-72
2020/12/28 06:48:57;;;;;;;1.60;1.50;;;4.10;99.90;;;;;;482751;245;27417;-71
2020/12/28 06:50:59;;;;;;;2.17;1.50;;;4.10;99.90;;;;;;482723;245;27568;-71
2020/12/28 06:53:00;;;;;;;1.30;1.30;;;4.10;99.90;;;;;;482729;246;27410;-70
2020/12/28 06:55:01;;;;;;;1.98;1.48;;;4.10;99.90;;;;;;482732;245;27440;-72
2020/12/28 06:57:02;;;;;;;2.58;1.40;;;4.20;99.90;;;;;;482710;245;27524;-73
2020/12/28 06:59:04;;;;;;;1.87;1.50;;;4.20;99.90;;;;;;482684;245;27995;-71
2020/12/28 07:01:05;;;;;;;1.60;1.50;;;4.20;99.90;;;;;;482687;245;27944;-72
2020/12/28 07:03:06;;;;;;;2.15;1.60;;;4.20;99.90;;;;;;482699;245;27833;-70
2020/12/28 07:05:07;;;;;;;1.50;1.40;;;4.10;99.90;;;;;;482722;245;27424;-71
2020/12/28 07:07:09;;;;;;;2.60;1.40;;;4.10;99.90;;;;;;482696;245;27433;-72
2020/12/28 07:09:10;;;;;;;1.40;1.40;;;4.20;99.90;;;;;;482712;245;27417;-70
2020/12/28 07:11:11;;;;;;;2.67;1.48;;;4.20;99.90;;;;;;482702;245;27453;-72
2020/12/28 07:13:12;;;;;;;1.45;1.35;;;4.20;99.90;;;;;;482730;245;27393;-71
2020/12/28 07:15:14;;;;;;;6.30;1.52;;;4.20;99.90;;;;;;482738;241;27604;-71
2020/12/28 07:17:15;;;;;;;1.40;1.30;;;4.20;99.90;;;;;;482810;245;27441;-72
2020/12/28 07:19:16;;;;;;;1.52;1.42;;;4.20;99.90;;;;;;482869;245;27410;-70
2020/12/28 07:21:17;;;;;;;2.08;1.52;;;4.30;99.90;;;;;;482838;245;28043;-72
2020/12/28 07:23:19;;;;;;;5.82;1.67;;;4.20;99.90;;;;;;482843;245;27861;-71
2020/12/28 07:25:20;;;;;;;1.58;1.45;;;4.20;99.90;;;;;;482915;245;27881;-71
2020/12/28 07:27:21;;;;;;;2.28;1.75;;;4.30;99.90;;;;;;482912;245;27495;-73
2020/12/28 07:29:22;;;;;;;2.35;1.55;;;4.30;99.90;;;;;;482878;245;27441;-71
2020/12/28 07:31:24;;;;;;;1.50;1.40;;;4.30;99.90;;;;;;482843;245;27441;-72
2020/12/28 07:33:25;;;;;;;1.50;1.40;;;4.20;99.90;;;;;;482818;245;27425;-70
2020/12/28 07:35:26;;;;;;;1.95;1.37;;;4.20;99.90;;;;;;482507;245;27509;-74
2020/12/28 07:37:27;;;;;;;1.50;1.40;;;4.20;99.90;;;;;;482749;245;27560;-75
2020/12/28 07:39:29;;;;;;;2.22;1.40;;;4.20;99.90;;;;;;482719;245;27393;-73
2020/12/28 07:41:30;;;;;;;1.90;1.40;;;4.20;99.90;;;;;;482652;245;27521;-74
2020/12/28 07:43:31;;;;;;;1.50;1.40;;;4.30;99.90;;;;;;482679;245;27484;-72
2020/12/28 07:45:32;;;;;;;1.27;1.27;;;4.20;99.90;;;;;;482676;245;27932;-73
2020/12/28 07:47:34;;;;;;;1.52;1.42;;;4.10;99.90;;;;;;482736;245;28058;-77
2020/12/28 07:49:36;;;;;;;1.30;1.20;;;4.10;99.90;;;;;;482691;242;27418;-76
2020/12/28 07:51:37;;;;;;;1.62;1.50;;;4.10;99.90;;;;;;482698;245;27565;-75
2020/12/28 07:53:38;;;;;;;2.10;1.50;;;4.20;99.90;;;;;;482642;245;27529;-75
2020/12/28 07:55:40;;;;;;;1.33;1.23;;;4.30;99.90;;;;;;482719;245;27908;-76
2020/12/28 07:57:41;;;;;;;1.60;1.50;;;4.40;99.90;;;;;;482675;245;28020;-73
2020/12/28 08:01:47;;;;;;;1.70;1.60;;;4.30;99.90;;;;;;487211;238;27596;-74
2020/12/28 08:03:48;;;;;;;2.35;1.65;;;4.30;99.90;;;;;;493166;241;27511;-73
2020/12/28 08:05:49;;;;;;;3.20;2.17;;;4.20;99.90;;;;;;492906;241;28004;-74
2020/12/28 08:07:51;;;;;;;2.40;2.20;;;4.20;99.90;;;;;;492990;241;27978;-75
2020/12/28 08:09:52;;;;;;;4.10;2.10;;;4.30;99.90;;;;;;493108;241;28702;-72
2020/12/28 08:11:53;;;;;;;3.37;2.22;;;4.30;99.90;;;;;;493369;241;27468;-73
2020/12/28 08:13:54;;;;;;;3.30;2.12;;;4.40;99.90;;;;;;493276;241;27532;-72
2020/12/28 08:15:56;;;;;;;1.83;1.70;;;4.50;99.90;;;;;;493354;241;27620;-74
2020/12/28 08:17:57;;;;;;;1.80;1.62;;;4.50;99.90;;;;;;493372;241;27465;-72
2020/12/28 08:19:58;;;;;;;1.60;1.50;;;4.50;99.90;;;;;;493337;241;27504;-73
2020/12/28 08:21:59;;;;;;;2.40;1.95;;;4.50;99.90;;;;;;493303;240;27523;-72
2020/12/28 08:24:01;;;;;;;3.03;2.58;;;4.60;99.90;;;;;;493295;241;28085;-72
2020/12/28 08:26:02;;;;;;;3.95;1.80;;;4.60;99.90;;;;;;493261;241;28155;-73
2020/12/28 08:28:03;;;;;;;1.90;1.80;;;4.60;99.90;;;;;;493396;241;27987;-73
2020/12/28 08:30:04;;;;;;;2.00;1.80;;;4.60;99.90;;;;;;493320;241;27528;-73
2020/12/28 08:32:06;;;;;;;2.53;1.80;;;4.60;99.90;;;;;;493440;241;27525;-72
2020/12/28 08:34:07;;;;;;;2.00;1.33;;;4.60;99.90;;;;;;493292;241;27538;-73
2020/12/28 08:36:08;;;;;;;1.55;1.45;;;4.50;99.90;;;;;;493275;241;27845;-75
2020/12/28 08:38:09;;;;;;;1.52;1.40;;;4.60;99.90;;;;;;493343;241;27523;-72
2020/12/28 08:40:11;;;;;;;1.62;1.52;;;4.70;99.90;;;;;;493253;241;27525;-73
2020/12/28 08:42:12;;;;;;;2.12;1.60;;;4.70;99.90;;;;;;493277;241;27477;-72
2020/12/28 08:44:13;;;;;;;1.40;1.30;;;4.70;99.90;;;;;;493256;241;27940;-74
2020/12/28 08:46:15;;;;;;;3.12;1.60;;;4.70;99.90;;;;;;493253;241;27958;-76
2020/12/28 08:48:17;;;;;;;2.92;2.20;;;4.70;99.90;;;;;;493247;241;27584;-74
2020/12/28 08:50:17;;;;;;;1.85;1.73;;;4.80;99.90;;;;;;493163;241;27504;-75
2020/12/28 08:52:18;;;;;;;2.55;1.92;;;4.80;99.90;;;;;;493306;241;27508;-73
2020/12/28 08:54:20;;;;;;;2.58;2.37;;;4.70;99.90;;;;;;493249;241;27611;-74
2020/12/28 08:56:21;;;;;;;1.70;1.60;;;4.70;99.90;;;;;;493262;241;27611;-74
2020/12/28 08:58:22;;;;;;;1.40;1.30;;;4.80;99.90;;;;;;493193;241;27599;-73
2020/12/28 09:00:23;;;;;;;1.90;1.70;;;4.80;99.90;;;;;;493141;241;27993;-73
2020/12/28 09:02:25;;;;;;;1.58;1.48;;;4.90;99.90;;;;;;493308;241;28123;-76
2020/12/28 09:04:26;;;;;;;4.78;4.28;;;4.90;99.90;;;;;;493243;241;28002;-75
2020/12/28 09:06:27;;;;;;;4.55;4.10;;;4.90;99.90;;;;;;493226;241;27549;-73
2020/12/28 09:08:28;;;;;;;5.55;4.55;;;5.00;99.90;;;;;;493262;241;27508;-75
2020/12/28 09:10:30;;;;;;;9.40;6.97;;;5.00;99.90;;;;;;493147;241;27517;-72
2020/12/28 09:12:31;;;;;;;7.18;5.47;;;4.80;99.90;;;;;;493302;241;27501;-75
2020/12/28 09:14:32;;;;;;;4.70;4.20;;;4.90;99.90;;;;;;493269;241;27453;-72
2020/12/28 09:16:33;;;;;;;3.20;3.00;;;5.00;99.90;;;;;;493232;241;27499;-73
2020/12/28 09:18:35;;;;;;;3.10;2.17;;;5.00;99.90;;;;;;493310;241;28878;-74
2020/12/28 09:20:36;;;;;;;2.95;2.25;;;5.00;99.90;;;;;;493335;241;27903;-73
2020/12/28 09:22:37;;;;;;;4.87;2.37;;;5.00;99.90;;;;;;493296;241;27520;-75
2020/12/28 09:24:38;;;;;;;1.80;1.70;;;5.00;99.90;;;;;;493308;241;27461;-71
2020/12/28 09:26:40;;;;;;;1.92;1.80;;;5.00;99.90;;;;;;493293;241;27520;-71
2020/12/28 09:28:41;;;;;;;1.60;1.50;;;5.00;99.90;;;;;;493413;241;27499;-71
2020/12/28 09:30:42;;;;;;;1.77;1.67;;;5.00;99.90;;;;;;493319;241;27533;-73
2020/12/28 09:32:43;;;;;;;1.80;1.70;;;5.00;99.90;;;;;;493295;241;27600;-74
2020/12/28 09:34:45;;;;;;;1.37;1.30;;;5.10;99.90;;;;;;493306;241;27454;-72
2020/12/28 09:36:46;;;;;;;1.50;1.40;;;5.10;99.90;;;;;;493299;241;27996;-73
2020/12/28 09:38:47;;;;;;;1.58;1.48;;;5.10;99.90;;;;;;493235;241;28773;-75
2020/12/28 09:40:48;;;;;;;1.30;1.20;;;5.00;99.90;;;;;;493306;241;28021;-73
2020/12/28 09:42:50;;;;;;;1.85;1.40;;;5.00;99.90;;;;;;493360;241;27529;-75
2020/12/28 09:44:51;;;;;;;2.03;1.45;;;5.10;99.90;;;;;;493277;241;27573;-72
2020/12/28 09:46:52;;;;;;;1.10;1.10;;;5.20;99.90;;;;;;493336;241;27624;-72
2020/12/28 09:48:53;;;;;;;1.40;1.30;;;5.20;99.90;;;;;;493258;241;27547;-73
2020/12/28 09:50:55;;;;;;;1.98;1.20;;;5.30;99.90;;;;;;493256;241;27840;-75
2020/12/28 09:52:56;;;;;;;0.90;0.90;;;5.20;99.90;;;;;;493304;241;27525;-76
2020/12/28 09:54:57;;;;;;;1.60;1.50;;;5.30;99.90;;;;;;493228;241;28624;-74
2020/12/28 09:57:04;;;;;;;1.25;1.15;;;5.30;99.90;;;;;;493344;241;28004;-74
2020/12/28 09:59:00;;;;;;;1.60;1.20;;;5.40;99.90;;;;;;492861;241;27522;-74
2020/12/28 10:01:01;;;;;;;1.40;1.30;;;5.40;99.90;;;;;;493326;241;27465;-74
2020/12/28 10:03:02;;;;;;;4.47;2.92;;;5.40;99.90;;;;;;493502;241;27612;-73
2020/12/28 10:05:03;;;;;;;2.22;1.87;;;5.40;99.90;;;;;;493629;241;27537;-78
2020/12/28 10:07:05;;;;;;;1.30;1.20;;;5.30;99.90;;;;;;493597;241;27461;-78
2020/12/28 10:09:06;;;;;;;1.23;1.12;;;5.40;99.90;;;;;;493573;241;27604;-74
2020/12/28 10:11:08;;;;;;;2.90;1.70;;;5.30;99.90;;;;;;493387;241;28660;-74
2020/12/28 10:13:09;;;;;;;2.05;1.40;;;5.30;99.90;;;;;;493355;241;27963;-74
2020/12/28 10:15:10;;;;;;;1.23;1.12;;;5.30;99.90;;;;;;493318;241;27578;-75
2020/12/28 10:17:11;;;;;;;2.20;1.90;;;5.40;99.90;;;;;;493320;240;27465;-75
2020/12/28 10:19:12;;;;;;;34.80;16.75;;;5.40;99.90;;;;;;493369;241;27532;-78
2020/12/28 10:21:14;;;;;;;17.05;8.15;;;5.30;99.90;;;;;;493366;241;27983;-77
2020/12/28 10:23:15;;;;;;;6.68;4.25;;;5.30;99.90;;;;;;493267;241;27516;-75
2020/12/28 10:25:16;;;;;;;3.33;2.70;;;5.30;99.90;;;;;;493313;241;28079;-73
2020/12/28 10:27:17;;;;;;;8.30;5.43;;;5.20;99.90;;;;;;493385;241;28101;-74
2020/12/28 10:29:19;;;;;;;7.37;4.70;;;5.30;99.90;;;;;;493367;241;28094;-72
2020/12/28 10:31:20;;;;;;;4.72;3.25;;;5.40;99.90;;;;;;493285;241;27544;-72
2020/12/28 10:33:21;;;;;;;2.53;2.33;;;5.50;99.90;;;;;;493313;241;27515;-72
2020/12/28 10:35:23;;;;;;;6.53;4.68;;;5.50;99.90;;;;;;493362;241;27481;-72
2020/12/28 10:37:24;;;;;;;24.37;12.90;;;5.60;99.90;;;;;;493424;241;27533;-73
2020/12/28 10:39:25;;;;;;;9.05;7.50;;;5.60;99.90;;;;;;493399;241;27583;-72
2020/12/28 10:41:26;;;;;;;2.70;2.50;;;5.60;99.90;;;;;;493333;241;27942;-72